Time;durP1;ratioP1;P1;durP2;ratioP2;P2;SDS_P1;SDS_P2;PMS_P1;PMS_P2;Temp;Humidity;BMP_temperature;BMP_pressure;BME280_temperature;BME280_humidity;BME280_pressure;Samples;Min_cycle;Max_cycle;Signal;HPM_P1;HPM_P2
2021/01/29 00:01:14;;;;;;;53.50;16.00;;;;;;;6.63;100.00;99492.44;5032707;28;20035;-74
2021/01/29 00:03:39;;;;;;;47.67;16.67;;;;;;;6.60;100.00;99492.66;5041162;28;20039;-75
2021/01/29 00:06:05;;;;;;;53.33;17.00;;;;;;;6.58;100.00;99483.91;5053194;28;20124;-73
2021/01/29 00:08:33;;;;;;;44.75;15.82;;;;;;;6.63;100.00;99480.91;5034931;28;20060;-74
2021/01/29 00:11:00;;;;;;;54.38;14.40;;;;;;;6.80;100.00;99478.78;5061005;28;20043;-75
2021/01/29 00:13:27;;;;;;;56.00;14.00;;;;;;;6.86;100.00;99477.50;5050093;28;20040;-74
2021/01/29 00:15:53;;;;;;;57.13;15.52;;;;;;;7.01;100.00;99476.47;5065678;28;20116;-74
2021/01/29 00:18:20;;;;;;;51.60;14.68;;;;;;;7.01;100.00;99459.63;5050716;28;20033;-74
2021/01/29 00:20:45;;;;;;;61.63;14.40;;;;;;;7.03;100.00;99455.88;5068351;28;20036;-75
2021/01/29 00:23:11;;;;;;;52.47;14.35;;;;;;;7.08;100.00;99448.41;5050791;28;20071;-74
2021/01/29 00:25:44;;;;;;;61.20;15.15;;;;;;;7.14;100.00;99445.31;5051014;28;20028;-74
2021/01/29 00:28:10;;;;;;;66.32;15.93;;;;;;;7.16;100.00;99427.34;5067800;28;20402;-73
2021/01/29 00:30:36;;;;;;;57.90;14.13;;;;;;;7.18;100.00;99425.44;5049565;28;20040;-74
2021/01/29 00:33:04;;;;;;;62.55;15.18;;;;;;;7.20;100.00;99418.19;5048694;28;20029;-74
2021/01/29 00:35:31;;;;;;;60.75;15.73;;;;;;;7.26;100.00;99412.41;5066043;28;20042;-75
2021/01/29 00:37:58;;;;;;;62.17;15.13;;;;;;;7.26;100.00;99409.75;5051796;28;20119;-72
2021/01/29 00:40:24;;;;;;;56.47;15.63;;;;;;;7.23;100.00;99404.63;5065851;28;20130;-75
2021/01/29 00:42:50;;;;;;;74.75;15.35;;;;;;;7.18;100.00;99397.91;5063916;28;20033;-74
2021/01/29 00:45:19;;;;;;;60.88;13.85;;;;;;;7.16;100.00;99399.84;5050860;28;20033;-74
2021/01/29 00:47:45;;;;;;;52.85;12.73;;;;;;;7.11;100.00;99400.16;5066205;28;20517;-73
2021/01/29 00:50:11;;;;;;;59.22;14.02;;;;;;;7.10;100.00;99394.91;5065036;28;20077;-75
2021/01/29 00:52:37;;;;;;;50.38;13.73;;;;;;;7.07;100.00;99393.34;5050256;28;20052;-74
2021/01/29 00:55:05;;;;;;;53.50;13.57;;;;;;;7.06;100.00;99386.28;5051492;28;20612;-73
2021/01/29 00:57:31;;;;;;;62.92;13.80;;;;;;;7.05;100.00;99373.91;5050679;28;20389;-74
2021/01/29 01:00:17;;;;;;;51.60;12.45;;;;;;;7.09;100.00;99370.09;5066596;28;20099;-74
2021/01/29 01:02:50;;;;;;;66.40;16.70;;;;;;;7.18;100.00;99361.41;5046327;28;20029;-74
2021/01/29 01:05:18;;;;;;;56.42;14.50;;;;;;;7.23;100.00;99358.41;5043271;28;20036;-74
2021/01/29 01:07:45;;;;;;;66.70;14.10;;;;;;;7.24;100.00;99350.28;5032471;28;20131;-74
2021/01/29 01:10:29;;;;;;;70.03;13.52;;;;;;;7.26;100.00;99348.38;5052802;28;20186;-75
2021/01/29 01:13:17;;;;;;;57.97;14.45;;;;;;;7.23;100.00;99343.25;5058441;28;20162;-74
2021/01/29 01:16:02;;;;;;;74.15;15.18;;;;;;;7.29;100.00;99345.47;5061229;28;20037;-75
2021/01/29 01:18:28;;;;;;;61.85;14.65;;;;;;;7.32;100.00;99339.06;5047410;28;20557;-74
2021/01/29 01:21:08;;;;;;;68.60;13.55;;;;;;;7.47;100.00;99329.09;5045537;28;20032;-74
2021/01/29 01:23:35;;;;;;;54.60;13.82;;;;;;;7.60;100.00;99324.53;5051718;28;20062;-74
2021/01/29 01:26:01;;;;;;;62.88;14.00;;;;;;;7.69;100.00;99316.69;5049011;28;20032;-74
2021/01/29 01:28:47;;;;;;;50.72;12.05;;;;;;;7.74;100.00;99311.00;5063845;28;20387;-74
2021/01/29 01:31:20;;;;;;;47.83;13.32;;;;;;;7.71;100.00;99301.38;5032218;28;20036;-75
2021/01/29 01:34:05;;;;;;;55.30;13.00;;;;;;;7.66;100.00;99292.03;5034623;28;20028;-75
2021/01/29 01:36:58;;;;;;;61.20;12.80;;;;;;;7.69;100.00;99286.47;5049669;28;20482;-75
2021/01/29 01:39:49;;;;;;;65.65;12.85;;;;;;;7.83;100.00;99272.06;5051967;28;20512;-75
2021/01/29 01:42:15;;;;;;;57.53;13.48;;;;;;;7.94;100.00;99270.28;5054684;28;20036;-75
2021/01/29 01:44:43;;;;;;;59.28;11.18;;;;;;;8.16;100.00;99258.78;5056631;28;20047;-73
2021/01/29 01:47:20;;;;;;;44.90;11.95;;;;;;;8.08;100.00;99246.00;5044804;28;20035;-75
2021/01/29 01:50:30;;;;;;;47.45;12.32;;;;;;;8.04;100.00;99238.34;5061807;28;20079;-74
2021/01/29 01:52:57;;;;;;;54.10;11.43;;;;;;;7.96;100.00;99230.91;5046574;28;20075;-75
2021/01/29 01:55:32;;;;;;;43.08;10.82;;;;;;;7.91;100.00;99217.06;5043499;28;20530;-74
2021/01/29 01:58:12;;;;;;;42.90;10.25;;;;;;;8.09;100.00;99210.31;5060137;28;20467;-74
2021/01/29 02:00:55;;;;;;;;;;;;;;;8.07;100.00;99206.91;5067804;28;20112;-75
2021/01/29 02:03:40;;;;;;;42.20;10.48;;;;;;;8.07;100.00;99190.88;5032903;28;20007;-75
2021/01/29 02:06:34;;;;;;;53.65;12.07;;;;;;;8.12;100.00;99191.38;5059322;28;20043;-74
2021/01/29 02:09:25;;;;;;;44.50;11.35;;;;;;;8.14;100.00;99175.22;5031584;28;20071;-75
2021/01/29 02:12:04;;;;;;;60.88;11.60;;;;;;;8.15;100.00;99171.56;5066145;28;20440;-75
2021/01/29 02:14:48;;;;;;;43.65;11.20;;;;;;;8.12;100.00;99164.66;5062730;28;20047;-75
2021/01/29 02:17:36;;;;;;;50.95;11.73;;;;;;;8.06;100.00;99161.59;5033853;28;20025;-74
2021/01/29 02:20:47;;;;;;;45.35;10.95;;;;;;;8.00;100.00;99154.94;5061145;28;20417;-74
2021/01/29 02:23:54;;;;;;;42.30;12.25;;;;;;;8.14;100.00;99137.81;5053982;28;20116;-75
2021/01/29 02:26:50;;;;;;;41.13;11.52;;;;;;;8.18;100.00;99133.06;5051974;28;20033;-75
2021/01/29 02:29:22;;;;;;;42.22;12.57;;;;;;;8.30;100.00;99116.03;5067728;28;20453;-75
2021/01/29 02:32:18;;;;;;;42.40;11.77;;;;;;;8.30;100.00;99116.03;5066781;28;20479;-76
2021/01/29 02:35:15;;;;;;;40.22;12.43;;;;;;;8.33;100.00;99108.66;5051069;28;20078;-76
2021/01/29 02:38:11;;;;;;;37.15;12.63;;;;;;;8.28;100.00;99091.25;5067126;28;20048;-76
2021/01/29 02:41:06;;;;;;;45.85;11.15;;;;;;;8.32;100.00;99082.06;5048501;28;20052;-76
2021/01/29 02:44:04;;;;;;;35.83;12.57;;;;;;;8.29;100.00;99075.09;5048671;28;20029;-76
2021/01/29 02:46:59;;;;;;;36.03;12.23;;;;;;;8.32;100.00;99066.03;5051029;28;20054;-76
2021/01/29 02:50:01;;;;;;;32.42;11.30;;;;;;;8.36;100.00;99054.94;5068857;28;20055;-76
2021/01/29 02:53:06;;;;;;;32.38;11.77;;;;;;;8.44;100.00;99048.97;5065774;28;20047;-75
2021/01/29 02:55:54;;;;;;;29.27;10.38;;;;;;;8.55;100.00;99030.22;5068980;28;20101;-75
2021/01/29 02:58:49;;;;;;;34.15;10.60;;;;;;;8.43;100.00;99031.25;5033418;28;20029;-74
2021/01/29 03:01:51;;;;;;;32.47;10.13;;;;;;;8.31;100.00;99027.75;5026176;28;20051;-75
2021/01/29 03:05:05;;;;;;;27.80;9.57;;;;;;;8.29;100.00;99023.47;5050332;28;20525;-76
2021/01/29 03:07:40;;;;;;;32.03;9.50;;;;;;;8.26;100.00;99023.72;5065579;28;20087;-75
2021/01/29 03:10:44;;;;;;;25.85;9.13;;;;;;;8.38;100.00;99012.06;5054358;28;20171;-74
2021/01/29 03:13:46;;;;;;;33.20;9.60;;;;;;;8.41;100.00;98995.75;5068872;28;20513;-75
2021/01/29 03:16:43;;;;;;;29.85;9.77;;;;;;;8.42;100.00;98987.59;5044308;28;20545;-75
2021/01/29 03:19:35;;;;;;;34.60;9.13;;;;;;;8.55;100.00;98976.75;5048364;28;20143;-75
2021/01/29 03:22:36;;;;;;;25.02;9.10;;;;;;;8.45;100.00;98965.13;5062552;28;20059;-74
2021/01/29 03:25:26;;;;;;;28.65;9.68;;;;;;;8.53;100.00;98957.28;5050802;28;20097;-75
2021/01/29 03:28:15;;;;;;;28.40;8.02;;;;;;;8.54;100.00;98956.31;5065682;28;20166;-75
2021/01/29 03:31:03;;;;;;;17.70;7.82;;;;;;;8.44;100.00;98936.69;5050113;28;20101;-75
2021/01/29 03:33:55;;;;;;;21.30;8.45;;;;;;;8.43;100.00;98929.66;5056283;28;20087;-75
2021/01/29 03:36:49;;;;;;;17.63;7.43;;;;;;;8.46;100.00;98926.69;5053461;28;20052;-75
2021/01/29 03:39:38;;;;;;;22.75;9.13;;;;;;;8.54;100.00;98918.91;5066010;28;20087;-75
2021/01/29 03:42:30;;;;;;;28.52;8.43;;;;;;;8.49;100.00;98902.41;5067542;28;20052;-75
2021/01/29 03:45:45;;;;;;;16.88;6.85;;;;;;;8.52;100.00;98896.78;5047909;28;20075;-75
2021/01/29 03:48:44;;;;;;;16.67;8.10;;;;;;;8.48;100.00;98890.00;5068027;28;20051;-75
2021/01/29 03:51:48;;;;;;;20.92;6.25;;;;;;;8.48;100.00;98879.31;5065264;28;20051;-73
2021/01/29 03:54:38;;;;;;;17.40;6.35;;;;;;;8.48;100.00;98879.31;5061808;28;20070;-75
2021/01/29 03:57:35;;;;;;;17.58;6.68;;;;;;;8.45;100.00;98866.22;5055192;28;20501;-75
2021/01/29 04:00:39;;;;;;;14.27;6.47;;;;;;;8.48;100.00;98863.25;5061469;28;20055;-75
2021/01/29 04:03:38;;;;;;;21.98;7.13;;;;;;;8.37;100.00;98853.50;5067227;28;20086;-75
2021/01/29 04:06:23;;;;;;;32.15;9.98;;;;;;;8.29;100.00;98855.06;5055018;28;20050;-75
2021/01/29 04:09:44;;;;;;;30.98;12.90;;;;;;;8.24;100.00;98854.63;5088879;23;20126;-77
2021/01/29 04:13:27;;;;;;;27.17;10.98;;;;;;;8.26;100.00;98836.66;5032889;28;20124;-77
2021/01/29 04:16:23;;;;;;;29.63;10.88;;;;;;;8.36;100.00;98813.53;5019596;28;20468;-76
2021/01/29 04:19:29;;;;;;;28.15;10.80;;;;;;;8.28;100.00;98822.16;5048011;28;20035;-77
2021/01/29 04:22:10;;;;;;;41.47;16.17;;;;;;;8.22;100.00;98819.16;5033254;23;20495;-72
2021/01/29 04:24:41;;;;;;;48.00;16.42;;;;;;;8.19;100.00;98814.09;5039725;28;20414;-71
2021/01/29 04:27:23;;;;;;;39.13;16.10;;;;;;;8.24;100.00;98809.19;5045828;28;20040;-71
2021/01/29 04:30:09;;;;;;;52.10;21.08;;;;;;;8.21;100.00;98809.47;5047596;28;20044;-71
2021/01/29 04:32:42;;;;;;;42.47;16.67;;;;;;;8.26;100.00;98793.88;5046825;28;20033;-71
2021/01/29 04:35:10;;;;;;;35.97;13.02;;;;;;;8.25;100.00;98785.00;5048682;28;20029;-71
2021/01/29 04:37:43;;;;;;;35.88;11.20;;;;;;;8.25;100.00;98784.16;5047941;28;20059;-70
2021/01/29 04:40:21;;;;;;;;;;;;;;;8.35;100.00;98777.06;5044406;28;20443;-71
2021/01/29 04:43:06;;;;;;;25.50;8.82;;;;;;;8.20;100.00;98779.22;5048005;28;19923;-71
2021/01/29 04:45:43;;;;;;;19.45;8.25;;;;;;;8.13;100.00;98768.22;5046590;28;20033;-71
2021/01/29 04:48:14;;;;;;;22.83;8.23;;;;;;;8.18;100.00;98769.63;5046786;28;20108;-70
2021/01/29 04:51:04;;;;;;;18.23;7.63;;;;;;;8.33;100.00;98774.53;5044099;28;20094;-70
2021/01/29 04:53:53;;;;;;;24.00;7.65;;;;;;;8.16;100.00;98761.72;5045496;28;20064;-71
2021/01/29 04:56:18;;;;;;;21.05;8.00;;;;;;;8.18;100.00;98764.28;5047439;28;20486;-71
2021/01/29 04:59:15;;;;;;;30.20;9.25;;;;;;;8.11;100.00;98762.13;5028182;28;20032;-72
2021/01/29 05:03:06;;;;;;;19.80;8.30;;;;;;;8.06;100.00;98758.16;5016313;28;20415;-71
2021/01/29 05:06:02;;;;;;;36.17;15.43;;;;;;;8.05;100.00;98748.44;5048034;28;20174;-72
2021/01/29 05:08:53;;;;;;;21.50;9.43;;;;;;;8.06;100.00;98740.31;5045269;28;20090;-71
2021/01/29 05:12:08;;;;;;;22.52;9.30;;;;;;;8.03;100.00;98735.22;5044624;28;20120;-70
2021/01/29 05:15:03;;;;;;;20.13;10.10;;;;;;;8.06;100.00;98726.97;5059567;28;20446;-73
2021/01/29 05:18:05;;;;;;;21.52;9.20;;;;;;;8.20;100.00;98730.28;5044825;28;20479;-70
2021/01/29 05:20:56;;;;;;;19.75;8.05;;;;;;;8.20;100.00;98722.25;5042410;28;20056;-71
2021/01/29 05:23:59;;;;;;;35.63;9.80;;;;;;;8.09;100.00;98720.47;5045151;28;20171;-71
2021/01/29 05:26:58;;;;;;;23.02;9.38;;;;;;;8.16;100.00;98716.31;5043979;28;20475;-69
2021/01/29 05:29:37;;;;;;;24.13;9.13;;;;;;;8.14;100.00;98715.63;5043135;28;20040;-70
2021/01/29 05:32:11;;;;;;;19.73;9.43;;;;;;;8.15;100.00;98711.13;5039267;28;20561;-71
2021/01/29 05:34:45;;;;;;;30.48;10.50;;;;;;;8.08;100.00;98711.63;5047502;28;20044;-70
2021/01/29 05:37:57;;;;;;;22.02;9.95;;;;;;;8.04;100.00;98709.34;5043447;28;20422;-70
2021/01/29 05:40:46;;;;;;;23.85;9.50;;;;;;;7.98;100.00;98721.41;5044282;28;20028;-71
2021/01/29 05:43:42;;;;;;;22.63;9.05;;;;;;;8.01;100.00;98706.97;5047154;28;20039;-72
2021/01/29 05:46:20;;;;;;;14.20;6.68;;;;;;;8.13;100.00;98714.75;5031101;28;20041;-72
2021/01/29 05:49:09;;;;;;;12.20;4.85;;;;;;;8.50;100.00;98711.59;5045626;28;20385;-72
2021/01/29 05:52:26;;;;;;;8.43;3.55;;;;;;;8.58;100.00;98714.44;5046691;28;20033;-69
2021/01/29 05:55:11;;;;;;;11.05;3.17;;;;;;;8.86;100.00;98713.69;5038323;28;20060;-72
2021/01/29 05:58:14;;;;;;;5.78;1.98;;;;;;;8.96;100.00;98707.50;5043098;28;20033;-69
2021/01/29 06:01:18;;;;;;;4.13;2.10;;;;;;;9.06;100.00;98724.44;5048741;28;20048;-72
2021/01/29 06:04:28;;;;;;;6.45;2.50;;;;;;;9.10;100.00;98720.50;4994693;28;20048;-71
2021/01/29 06:07:20;;;;;;;8.35;3.40;;;;;;;9.10;100.00;98716.00;5048269;28;20029;-70
2021/01/29 06:10:10;;;;;;;8.98;4.30;;;;;;;9.15;100.00;98713.75;5049995;28;20163;-71
2021/01/29 06:12:58;;;;;;;6.35;3.47;;;;;;;9.17;100.00;98722.50;5048505;28;20102;-71
2021/01/29 06:15:56;;;;;;;5.38;3.78;;;;;;;9.13;100.00;98726.44;5047014;28;20094;-70
2021/01/29 06:18:39;;;;;;;7.00;3.50;;;;;;;9.19;100.00;98725.03;5049727;28;20131;-71
2021/01/29 06:21:33;;;;;;;4.75;3.20;;;;;;;9.18;100.00;98734.03;5048352;28;20032;-71
2021/01/29 06:24:10;;;;;;;;;;;;;;;9.15;100.00;98742.34;5051387;28;20096;-71
2021/01/29 06:27:07;;;;;;;4.68;3.50;;;;;;;9.20;100.00;98726.69;5048138;28;19923;-70
2021/01/29 06:30:10;;;;;;;3.35;2.60;;;;;;;9.21;100.00;98745.31;5049047;28;20049;-68
2021/01/29 06:32:56;;;;;;;3.95;3.13;;;;;;;9.25;100.00;98751.25;5049729;28;20437;-71
2021/01/29 06:35:44;;;;;;;4.75;3.28;;;;;;;9.24;100.00;98749.56;5047118;28;20037;-71
2021/01/29 06:38:31;;;;;;;5.53;3.22;;;;;;;9.24;100.00;98754.91;5047712;28;20421;-70
2021/01/29 06:41:21;;;;;;;3.70;3.00;;;;;;;9.22;100.00;98757.72;5048250;28;20422;-70
2021/01/29 06:44:12;;;;;;;5.25;3.40;;;;;;;9.24;100.00;98757.59;5049064;28;20098;-69
2021/01/29 06:46:49;;;;;;;4.70;3.55;;;;;;;9.22;100.00;98757.72;5048491;28;20136;-70
2021/01/29 06:49:23;;;;;;;5.88;4.00;;;;;;;9.27;100.00;98763.50;5044608;28;20041;-71
2021/01/29 06:52:17;;;;;;;4.65;3.67;;;;;;;9.29;100.00;98774.06;5047539;28;20046;-70
2021/01/29 06:55:02;;;;;;;7.93;4.38;;;;;;;9.29;100.00;98784.78;5050701;28;20465;-70
2021/01/29 06:57:30;;;;;;;9.15;4.20;;;;;;;9.24;100.00;98776.31;5046318;28;20398;-70
2021/01/29 07:00:16;;;;;;;7.95;4.80;;;;;;;9.23;100.00;98779.97;5048734;28;20041;-69
2021/01/29 07:03:31;;;;;;;6.18;4.65;;;;;;;9.17;100.00;98789.41;5049590;28;20510;-69
2021/01/29 07:06:24;;;;;;;7.10;5.15;;;;;;;9.23;100.00;98796.03;4987707;28;20042;-70
2021/01/29 07:08:59;;;;;;;7.30;5.80;;;;;;;9.28;100.00;98793.78;5048758;28;20061;-70
2021/01/29 07:11:32;;;;;;;10.48;5.95;;;;;;;9.32;100.00;98785.34;5046404;28;20094;-69
2021/01/29 07:14:35;;;;;;;9.07;5.43;;;;;;;9.32;100.00;98800.56;5046115;28;20487;-69
2021/01/29 07:17:19;;;;;;;9.73;5.63;;;;;;;9.35;100.00;98794.94;5045992;28;20036;-69
2021/01/29 07:20:14;;;;;;;15.32;6.82;;;;;;;9.30;100.00;98808.75;5046628;28;20052;-70
2021/01/29 07:23:09;;;;;;;8.63;5.68;;;;;;;9.40;100.00;98802.56;5048800;28;20029;-70
2021/01/29 07:25:50;;;;;;;20.58;7.07;;;;;;;9.34;100.00;98811.97;5047793;28;20468;-70
2021/01/29 07:28:30;;;;;;;10.88;6.40;;;;;;;9.41;100.00;98815.81;5044268;28;20029;-70
2021/01/29 07:31:11;;;;;;;12.85;6.75;;;;;;;9.37;100.00;98819.75;5048298;28;20028;-70
2021/01/29 07:33:50;;;;;;;14.57;7.78;;;;;;;9.39;100.00;98823.13;5043498;28;20040;-68
2021/01/29 07:36:39;;;;;;;14.90;8.73;;;;;;;9.38;100.00;98826.78;5042830;28;20041;-70
2021/01/29 07:39:24;;;;;;;14.82;8.25;;;;;;;9.37;100.00;98825.09;5049533;28;20119;-70
2021/01/29 07:42:00;;;;;;;16.77;8.35;;;;;;;9.40;100.00;98832.84;5046870;28;20395;-72
2021/01/29 07:44:38;;;;;;;17.90;8.73;;;;;;;9.31;100.00;98847.06;5045784;28;20098;-72
2021/01/29 07:47:13;;;;;;;11.75;7.88;;;;;;;9.34;100.00;98836.94;5047545;28;20487;-70
2021/01/29 07:49:50;;;;;;;15.02;7.18;;;;;;;9.24;100.00;98853.94;5048386;28;20040;-70
2021/01/29 07:52:28;;;;;;;13.98;6.55;;;;;;;9.27;100.00;98849.16;5046601;28;20060;-70
2021/01/29 07:55:01;;;;;;;9.32;5.30;;;;;;;9.30;100.00;98856.09;5047165;28;20024;-71
2021/01/29 07:57:43;;;;;;;14.15;6.93;;;;;;;9.27;100.00;98856.34;5046469;28;20025;-71
2021/01/29 08:00:35;;;;;;;11.07;4.45;;;;;;;9.31;100.00;98866.66;5044323;28;20148;-70
2021/01/29 08:03:13;;;;;;;7.07;3.97;;;;;;;9.30;100.00;98856.09;5046997;28;20079;-71
2021/01/29 08:05:49;;;;;;;6.22;3.92;;;;;;;9.27;100.00;98856.34;5044742;28;20032;-69
2021/01/29 08:08:21;;;;;;;10.20;4.10;;;;;;;9.27;100.00;98861.69;5044076;28;20037;-70
2021/01/29 08:10:50;;;;;;;10.38;4.55;;;;;;;9.30;100.00;98877.50;5047548;28;20040;-70
2021/01/29 08:13:31;;;;;;;13.20;5.03;;;;;;;9.31;100.00;98865.81;5048625;28;20048;-71
2021/01/29 08:16:02;;;;;;;17.40;6.43;;;;;;;9.26;100.00;98868.88;5046151;28;20039;-71
2021/01/29 08:18:47;;;;;;;19.38;6.95;;;;;;;9.36;100.00;98868.06;5047581;28;20029;-70
2021/01/29 08:21:24;;;;;;;23.50;7.90;;;;;;;9.35;100.00;98869.91;5043132;28;20044;-70
2021/01/29 08:24:24;;;;;;;21.35;7.60;;;;;;;9.39;100.00;98868.63;5045355;28;20524;-70
2021/01/29 08:27:04;;;;;;;40.88;9.77;;;;;;;9.36;100.00;98882.31;5044777;28;20061;-70
2021/01/29 08:29:44;;;;;;;26.38;7.65;;;;;;;9.43;100.00;98872.75;5043522;28;20507;-70
2021/01/29 08:32:59;;;;;;;36.55;7.10;;;;;;;9.42;100.00;98886.28;5044634;28;20033;-70
2021/01/29 08:35:42;;;;;;;40.03;7.75;;;;;;;9.48;100.00;98886.56;5044814;28;20060;-70
2021/01/29 08:38:14;;;;;;;39.30;8.50;;;;;;;9.49;100.00;98888.28;5039906;28;20034;-70
2021/01/29 08:40:55;;;;;;;37.67;7.78;;;;;;;9.47;100.00;98895.59;5047775;28;20040;-71
2021/01/29 08:43:51;;;;;;;23.23;7.13;;;;;;;9.47;100.00;98892.91;5040634;28;20098;-72
2021/01/29 08:46:25;;;;;;;25.83;6.45;;;;;;;9.50;100.00;98902.50;5061766;28;20061;-70
2021/01/29 08:49:09;;;;;;;44.70;8.10;;;;;;;9.56;100.00;98902.81;5046262;28;20040;-71
2021/01/29 08:51:49;;;;;;;35.05;5.88;;;;;;;9.49;100.00;98907.03;5045549;28;20478;-69
2021/01/29 08:54:30;;;;;;;42.60;8.13;;;;;;;9.48;100.00;98913.34;5044453;28;20037;-70
2021/01/29 08:57:27;;;;;;;41.55;7.03;;;;;;;9.54;100.00;98918.16;5044708;28;20067;-71
2021/01/29 08:59:58;;;;;;;38.92;6.38;;;;;;;9.54;100.00;98923.53;5042311;28;20100;-70
2021/01/29 09:02:30;;;;;;;39.33;6.05;;;;;;;9.52;100.00;98930.84;5044446;28;20025;-70
2021/01/29 09:05:04;;;;;;;25.75;5.90;;;;;;;9.53;100.00;98918.28;5044772;28;20083;-71
2021/01/29 09:07:33;;;;;;;33.33;5.32;;;;;;;9.55;100.00;98927.91;5044385;28;20068;-69
2021/01/29 09:10:19;;;;;;;27.70;6.53;;;;;;;9.47;100.00;98927.72;5046065;28;20050;-71
2021/01/29 09:12:46;;;;;;;30.35;5.50;;;;;;;9.47;100.00;98927.72;5046321;28;20115;-69
2021/01/29 09:15:23;;;;;;;51.53;7.70;;;;;;;9.53;100.00;98937.88;5044233;28;20040;-70
2021/01/29 09:18:15;;;;;;;30.63;5.00;;;;;;;9.53;100.00;98937.88;5045826;28;20467;-70
2021/01/29 09:21:28;;;;;;;28.27;6.65;;;;;;;9.60;100.00;98947.09;5045544;28;20053;-71
2021/01/29 09:23:53;;;;;;;33.00;5.32;;;;;;;9.61;100.00;98932.72;5004361;28;20128;-70
2021/01/29 09:26:33;;;;;;;27.88;4.85;;;;;;;9.60;100.00;98948.91;5002860;28;20133;-68
2021/01/29 09:29:13;;;;;;;27.60;4.78;;;;;;;9.64;100.00;98953.84;5029448;28;20546;-69
2021/01/29 09:31:41;;;;;;;35.10;8.15;;;;;;;9.69;100.00;98956.97;5043493;28;20025;-69
2021/01/29 09:34:17;;;;;;;31.55;4.43;;;;;;;9.72;100.00;98980.81;5043359;28;20037;-69
2021/01/29 09:36:42;;;;;;;39.67;7.25;;;;;;;9.72;100.00;98970.09;5044573;28;20037;-69
2021/01/29 09:39:19;;;;;;;30.83;5.10;;;;;;;9.72;100.00;98972.78;5047453;28;20753;-69
2021/01/29 09:41:59;;;;;;;27.52;4.78;;;;;;;9.73;100.00;98982.53;5046549;28;20040;-69
2021/01/29 09:44:28;;;;;;;35.35;5.28;;;;;;;9.79;100.00;98974.91;5046789;28;20089;-69
2021/01/29 09:46:56;;;;;;;34.78;4.88;;;;;;;9.84;100.00;98983.41;5045065;28;20091;-69
2021/01/29 09:49:25;;;;;;;30.13;5.43;;;;;;;9.88;100.00;98991.00;5047755;28;20268;-69
2021/01/29 09:51:59;;;;;;;29.20;4.30;;;;;;;9.96;100.00;99003.75;5046848;28;20057;-69
2021/01/29 09:54:37;;;;;;;33.10;5.63;;;;;;;9.94;100.00;99001.19;5047996;28;20411;-69
2021/01/29 09:57:16;;;;;;;29.30;5.13;;;;;;;9.97;100.00;99008.97;5042481;28;20045;-69
2021/01/29 10:00:21;;;;;;;35.85;5.10;;;;;;;9.93;100.00;99010.25;5045009;28;20037;-69
2021/01/29 10:03:00;;;;;;;27.98;4.07;;;;;;;9.96;100.00;99017.13;5046118;28;20144;-70
2021/01/29 10:05:36;;;;;;;30.90;4.82;;;;;;;9.94;100.00;99009.22;5044647;28;20033;-70
2021/01/29 10:08:11;;;;;;;25.05;4.20;;;;;;;9.95;100.00;99023.47;5040256;28;20407;-70
2021/01/29 10:10:48;;;;;;;25.90;4.05;;;;;;;9.99;100.00;99025.78;5061910;28;20051;-69
2021/01/29 10:13:25;;;;;;;35.15;4.35;;;;;;;10.01;100.00;99039.88;5046708;28;20147;-69
2021/01/29 10:16:12;;;;;;;24.25;3.90;;;;;;;9.96;100.00;99035.91;5044302;28;20040;-70
2021/01/29 10:18:39;;;;;;;28.90;5.43;;;;;;;10.00;100.00;99042.66;5046323;28;20029;-70
2021/01/29 10:21:15;;;;;;;28.67;3.90;;;;;;;10.03;100.00;99050.47;5041346;28;20483;-70
2021/01/29 10:24:00;;;;;;;28.27;4.30;;;;;;;10.02;100.00;99038.88;5041757;28;20033;-70
2021/01/29 10:26:39;;;;;;;32.97;3.55;;;;;;;10.05;100.00;99048.50;5047420;28;20410;-70
2021/01/29 10:29:14;;;;;;;23.27;4.13;;;;;;;10.06;100.00;99047.53;5037643;28;20511;-70
2021/01/29 10:31:50;;;;;;;27.25;4.85;;;;;;;10.17;100.00;99049.28;5046702;28;20093;-70
2021/01/29 10:34:21;;;;;;;33.08;5.95;;;;;;;10.18;100.00;99046.47;5046932;28;20048;-70
2021/01/29 10:36:55;;;;;;;34.83;5.47;;;;;;;10.29;100.00;99059.75;5043563;28;20445;-70
2021/01/29 10:39:21;;;;;;;26.83;5.03;;;;;;;10.31;100.00;99054.22;5046368;28;20041;-70
2021/01/29 10:42:11;;;;;;;30.58;4.72;;;;;;;10.37;100.00;99054.53;5047319;28;20044;-70
2021/01/29 10:44:37;;;;;;;33.85;4.28;;;;;;;10.41;100.00;99057.81;5048025;28;20390;-70
2021/01/29 10:47:34;;;;;;;31.88;4.10;;;;;;;10.43;100.00;99062.03;5049498;28;20079;-70
2021/01/29 10:50:19;;;;;;;35.97;7.22;;;;;;;10.49;99.81;99066.00;5042990;28;20036;-69
2021/01/29 10:53:10;;;;;;;54.25;14.82;;;;;;;10.50;98.69;99067.69;5049996;28;20162;-69
2021/01/29 10:55:40;;;;;;;69.15;19.67;;;;;;;10.51;98.73;99075.59;5048854;28;20407;-71
2021/01/29 10:58:34;;;;;;;53.08;11.75;;;;;;;10.52;98.69;99077.31;5043109;28;20414;-70
2021/01/29 11:01:03;;;;;;;50.45;12.52;;;;;;;10.54;98.92;99079.84;5046951;28;20048;-70
2021/01/29 11:03:52;;;;;;;142.48;35.30;;;;;;;10.54;99.21;99080.72;5049859;28;20083;-69
2021/01/29 11:06:21;;;;;;;174.65;45.53;;;;;;;10.59;99.95;99084.78;5050344;28;20574;-69
2021/01/29 11:08:55;;;;;;;95.60;22.40;;;;;;;10.60;99.82;99086.50;5048454;28;20052;-70
2021/01/29 11:11:29;;;;;;;155.90;47.78;;;;;;;10.61;99.80;99080.16;5042869;28;20115;-71
2021/01/29 11:14:23;;;;;;;82.00;24.48;;;;;;;10.57;98.88;99084.06;5048873;28;20040;-72
2021/01/29 11:16:53;;;;;;;;;;;;;;;10.56;99.19;99080.53;5050389;28;20251;-70
2021/01/29 11:19:23;;;;;;;48.47;9.88;;;;;;;10.66;99.47;99091.31;5048021;28;19921;-70
2021/01/29 11:22:03;;;;;;;31.55;7.88;;;;;;;10.65;100.00;99081.56;5043488;28;20548;-70
2021/01/29 11:24:32;;;;;;;21.02;4.57;;;;;;;10.69;100.00;99072.22;5046866;28;20062;-70
2021/01/29 11:27:24;;;;;;;27.65;4.45;;;;;;;10.68;100.00;99087.47;5047731;28;20060;-70
2021/01/29 11:30:03;;;;;;;29.67;4.30;;;;;;;10.71;98.97;99081.00;5046551;28;20033;-70
2021/01/29 11:32:33;;;;;;;22.40;3.35;;;;;;;10.71;99.27;99086.38;5045013;28;20408;-70
2021/01/29 11:35:25;;;;;;;24.35;4.07;;;;;;;10.77;100.00;99088.50;5049581;28;20040;-70
2021/01/29 11:37:56;;;;;;;23.42;4.50;;;;;;;10.81;100.00;99081.84;5032253;28;20124;-70
2021/01/29 11:40:30;;;;;;;34.08;5.45;;;;;;;10.77;100.00;99085.81;5042899;28;20044;-70
2021/01/29 11:43:25;;;;;;;30.02;5.20;;;;;;;10.79;100.00;99083.84;5039740;28;20025;-70
2021/01/29 11:45:54;;;;;;;32.05;4.72;;;;;;;10.84;100.00;99081.59;5045983;28;20033;-70
2021/01/29 11:48:47;;;;;;;25.58;4.22;;;;;;;10.88;100.00;99083.84;5047586;28;20091;-70
2021/01/29 11:51:38;;;;;;;39.33;4.90;;;;;;;10.93;99.86;99083.41;5049821;28;20060;-70
2021/01/29 11:54:36;;;;;;;28.25;5.10;;;;;;;10.92;100.00;99082.56;5054816;28;20132;-70
2021/01/29 11:57:13;;;;;;;42.13;5.28;;;;;;;10.92;100.00;99077.19;5046480;28;20074;-70
2021/01/29 11:59:47;;;;;;;33.40;3.95;;;;;;;10.96;99.67;99075.09;5044792;28;20102;-71
2021/01/29 12:02:24;;;;;;;29.80;3.90;;;;;;;10.92;99.26;99079.88;5049056;28;20037;-70
2021/01/29 12:05:13;;;;;;;30.38;5.30;;;;;;;11.00;99.53;99072.97;5048286;28;20033;-70
2021/01/29 12:08:17;;;;;;;29.25;5.45;;;;;;;10.94;99.94;99056.44;5048643;28;20433;-70
2021/01/29 12:10:51;;;;;;;32.25;5.75;;;;;;;11.08;98.91;99059.69;5037721;28;20328;-71
2021/01/29 12:13:26;;;;;;;23.65;3.97;;;;;;;11.08;99.13;99052.47;5048415;28;20032;-71
2021/01/29 12:15:58;;;;;;;27.17;4.53;;;;;;;11.19;97.62;99055.00;5046195;28;20060;-70
2021/01/29 12:18:27;;;;;;;25.20;5.50;;;;;;;11.28;97.02;99062.22;5047771;28;20044;-70
2021/01/29 12:21:09;;;;;;;20.20;3.65;;;;;;;11.25;95.66;99054.44;5041820;28;20044;-70
2021/01/29 12:23:54;;;;;;;17.30;3.58;;;;;;;11.26;95.80;99044.53;5047176;28;21585;-71
2021/01/29 12:26:36;;;;;;;29.27;3.92;;;;;;;11.34;95.11;99045.53;5047087;28;20055;-70
2021/01/29 12:29:17;;;;;;;22.93;3.47;;;;;;;11.44;95.77;99033.91;5044119;28;20028;-70
2021/01/29 12:32:02;;;;;;;27.30;3.13;;;;;;;11.41;93.88;99035.06;5061301;28;20041;-71
2021/01/29 12:34:43;;;;;;;18.50;2.60;;;;;;;11.44;92.34;99033.91;5046604;28;20032;-71
2021/01/29 12:37:19;;;;;;;24.50;4.05;;;;;;;11.47;93.16;99033.63;5046505;28;20036;-70
2021/01/29 12:39:47;;;;;;;17.45;2.40;;;;;;;11.48;93.95;99051.44;5043108;28;20125;-70